METAR AND TAF INFORMATION
METAR FOR LSZS
ADDS - METARS form results

(0618 UTC 22 January 2021)
Data provider http://aviationweather.gov/metar/data/
 
METAR text: LSZS 220550Z AUTO 20005KT 160V240 9999 -SN FEW017 BKN032 M02/M03 Q1001
Conditions at: LSZS (SAMEDAN , CH) observed 0550 UTC 22 January 2021
Temperature: -2.0°C (28°F)
Dewpoint: -3.0°C (27°F) [RH = 93%]
Pressure (altimeter): 29.56 inches Hg (1001.0 mb)
Winds: from the SSW (200 degrees) at 6 MPH (5 knots; 2.6 m/s)
Visibility: 6 or more miles (10+ km)
Ceiling: 3200 feet AGL
Clouds: few clouds at 1700 feet AGL
broken clouds at 3200 feet AGL
Weather: -SN  (light snow)

METAR text: LSZS 220520Z AUTO 17008KT 110V200 9999 -SN BKN015 BKN017 M00/M03 Q1001
Conditions at: LSZS (SAMEDAN , CH) observed 0520 UTC 22 January 2021
Temperature: 0.0°C (32°F)
Dewpoint: -3.0°C (27°F) [RH = 80%]
Pressure (altimeter): 29.56 inches Hg (1001.0 mb)
Winds: from the S (170 degrees) at 9 MPH (8 knots; 4.1 m/s)
Visibility: 6 or more miles (10+ km)
Ceiling: 1500 feet AGL
Clouds: broken clouds at 1500 feet AGL
broken clouds at 1700 feet AGL
Weather: -SN  (light snow)

Forecast for: LSZS (SAMEDAN , CH)
Text: TAF LSZS 220525Z 2206/2215 17008KT 9000 -SN BKN015 BKN050 TX01/2214Z
Forecast period: 0600 to 1500 UTC 22 January 2021
Forecast type: FROM: standard forecast or significant change
Winds: from the S (170 degrees) at 9 MPH (8 knots; 4.1 m/s)
Visibility: 6 miles (9 km)
Ceiling: 1500 feet AGL
Clouds: broken clouds at 1500 feet AGL
broken clouds at 5000 feet AGL
Weather: -SN  (light snow)
Text: TEMPO 2213/2215 0800 SN VV003
Forecast period: 1300 to 1500 UTC 22 January 2021
Forecast type: TEMPORARY: The following changes expected for less than half the time period
Visibility: 0.50 miles (0.80 km)
Ceiling: indefinite ceiling with vertical visibility of 300 feet AGL
Clouds: obscured sky
Weather: SN  (moderate snow)

 AIRPORT MAP

 RUNWAY INFORMATION
Runway 03 Runway length 5905 ft Runway width 130 ft
Runway elevation 5600 ft Runway displaced threshold 0 ft Runway heading 29
Runway 21 Runway length 5905 ft Runway width 130 ft
Runway elevation 5574 ft Runway displaced threshold 360 ft Runway heading 209

 AIRPORT FREQUENCIES
Type A/G Name GLIDER Frequency 123.67 MHZ
Type ATIS Name ATIS Frequency 136.6 MHZ
Type GND Name GND Frequency 121.6 MHZ
Type INFO Name INFO Frequency 138.05 MHZ
Type TWR Name TWR Frequency 135.325 MHZ

 AIRPORT NEAR NAVIGATION AIDS



Powered by Virtual Airlines Manager [v2.6.2]

Hosted by Utixo.it